Time;durP1;ratioP1;P1;durP2;ratioP2;P2;SDS_P1;SDS_P2;PMS_P1;PMS_P2;Temp;Humidity;BMP_temperature;BMP_pressure;BME280_temperature;BME280_humidity;BME280_pressure;Samples;Min_cycle;Max_cycle;Signal;HPM_P1;HPM_P2
2023/05/07 00:00:45;;;;;;;17.85;15.02;;;;;;;;;;5095805;28;20126;-70
2023/05/07 00:03:13;;;;;;;18.52;15.02;;;;;;;;;;5099115;28;20134;-70
2023/05/07 00:05:39;;;;;;;17.23;13.23;;;;;;;;;;5103754;28;20040;-71
2023/05/07 00:08:05;;;;;;;19.27;15.02;;;;;;;;;;5101520;28;20047;-71
2023/05/07 00:10:32;;;;;;;17.05;13.50;;;;;;;;;;5103898;28;20118;-70
2023/05/07 00:12:58;;;;;;;19.83;14.43;;;;;;;;;;5095442;28;20353;-70
2023/05/07 00:15:24;;;;;;;18.40;13.73;;;;;;;;;;5103575;28;20229;-70
2023/05/07 00:17:50;;;;;;;19.27;15.25;;;;;;;;;;5104498;28;20051;-70
2023/05/07 00:20:16;;;;;;;17.85;13.52;;;;;;;;;;5094140;28;20039;-70
2023/05/07 00:22:42;;;;;;;21.13;16.27;;;;;;;;;;5103432;28;20404;-70
2023/05/07 00:25:10;;;;;;;21.08;15.90;;;;;;;;;;5104910;28;20476;-70
2023/05/07 00:27:36;;;;;;;18.83;14.23;;;;;;;;;;5105188;28;20162;-70
2023/05/07 00:30:02;;;;;;;19.10;14.50;;;;;;;;;;5093771;28;20529;-70
2023/05/07 00:32:28;;;;;;;18.80;14.50;;;;;;;;;;5099138;28;20051;-70
2023/05/07 00:34:55;;;;;;;21.23;15.35;;;;;;;;;;5105756;28;20104;-70
2023/05/07 00:37:21;;;;;;;19.27;15.88;;;;;;;;;;5107841;28;20044;-70
2023/05/07 00:39:47;;;;;;;20.55;15.57;;;;;;;;;;5103833;28;20515;-70
2023/05/07 00:42:14;;;;;;;21.73;14.45;;;;;;;;;;5102158;28;20307;-70
2023/05/07 00:44:41;;;;;;;18.02;14.93;;;;;;;;;;5106096;28;20036;-70
2023/05/07 00:47:07;;;;;;;19.27;15.80;;;;;;;;;;5104150;28;20127;-69
2023/05/07 00:49:41;;;;;;;20.63;14.90;;;;;;;;;;5095313;28;20073;-70
2023/05/07 00:52:08;;;;;;;20.58;15.27;;;;;;;;;;5106015;28;20039;-70
2023/05/07 00:54:34;;;;;;;18.80;14.68;;;;;;;;;;5102303;28;20075;-70
2023/05/07 00:57:02;;;;;;;18.15;15.50;;;;;;;;;;5107113;28;20047;-70
2023/05/07 00:59:28;;;;;;;21.20;16.55;;;;;;;;;;5098374;28;20504;-70
2023/05/07 01:01:54;;;;;;;20.98;15.38;;;;;;;;;;5101350;28;20039;-70
2023/05/07 01:04:22;;;;;;;20.70;15.63;;;;;;;;;;5108652;28;20505;-71
2023/05/07 01:06:48;;;;;;;21.15;16.63;;;;;;;;;;5097386;28;20105;-71
2023/05/07 01:09:14;;;;;;;21.67;16.45;;;;;;;;;;5094905;28;20032;-71
2023/05/07 01:11:41;;;;;;;21.38;15.20;;;;;;;;;;5102512;28;20035;-71
2023/05/07 01:14:07;;;;;;;20.77;14.35;;;;;;;;;;5107573;28;20035;-70
2023/05/07 01:16:33;;;;;;;22.20;14.90;;;;;;;;;;5099748;28;20118;-70
2023/05/07 01:19:00;;;;;;;22.65;16.45;;;;;;;;;;5097269;28;20040;-70
2023/05/07 01:21:27;;;;;;;16.85;14.98;;;;;;;;;;5105118;28;20045;-70
2023/05/07 01:23:54;;;;;;;21.23;14.98;;;;;;;;;;5107044;28;20039;-70
2023/05/07 01:26:21;;;;;;;20.25;16.00;;;;;;;;;;5094261;28;20145;-70
2023/05/07 01:28:48;;;;;;;20.70;16.13;;;;;;;;;;5095870;28;20050;-70
2023/05/07 01:31:14;;;;;;;19.08;15.40;;;;;;;;;;5105733;28;20042;-70
2023/05/07 01:33:41;;;;;;;22.45;15.15;;;;;;;;;;5109938;28;20173;-70
2023/05/07 01:36:08;;;;;;;22.27;17.80;;;;;;;;;;5094491;28;20035;-71
2023/05/07 01:38:35;;;;;;;22.10;16.73;;;;;;;;;;5098167;28;20482;-71
2023/05/07 01:41:01;;;;;;;23.55;17.35;;;;;;;;;;5106523;28;20039;-71
2023/05/07 01:43:28;;;;;;;20.13;16.60;;;;;;;;;;5098508;28;20394;-70
2023/05/07 01:45:55;;;;;;;20.23;16.20;;;;;;;;;;5099614;28;20040;-70
2023/05/07 01:48:21;;;;;;;23.90;17.35;;;;;;;;;;5105338;28;20044;-70
2023/05/07 01:50:48;;;;;;;22.63;17.15;;;;;;;;;;5099776;28;20035;-70
2023/05/07 01:53:14;;;;;;;23.00;17.90;;;;;;;;;;5093217;28;20466;-70
2023/05/07 01:55:41;;;;;;;20.80;16.65;;;;;;;;;;5102234;28;20036;-71
2023/05/07 01:58:07;;;;;;;23.55;17.25;;;;;;;;;;5094124;28;20463;-70
2023/05/07 02:00:33;;;;;;;21.45;17.92;;;;;;;;;;5095870;28;20039;-70
2023/05/07 02:02:59;;;;;;;23.50;17.83;;;;;;;;;;5094977;28;20469;-70
2023/05/07 02:05:25;;;;;;;21.13;16.98;;;;;;;;;;5103237;28;20044;-71
2023/05/07 02:07:51;;;;;;;21.83;17.30;;;;;;;;;;5098522;28;20062;-70
2023/05/07 02:10:17;;;;;;;21.05;17.52;;;;;;;;;;5092513;28;20040;-70
2023/05/07 02:12:44;;;;;;;24.95;18.42;;;;;;;;;;5100182;28;20048;-71
2023/05/07 02:15:10;;;;;;;23.15;16.88;;;;;;;;;;5101538;27;20047;-70
2023/05/07 02:17:40;;;;;;;22.63;18.25;;;;;;;;;;5096617;28;20123;-70
2023/05/07 02:20:12;;;;;;;19.95;17.05;;;;;;;;;;5093424;28;20096;-70
2023/05/07 02:22:39;;;;;;;25.90;19.35;;;;;;;;;;5102416;28;20092;-71
2023/05/07 02:25:05;;;;;;;21.08;17.45;;;;;;;;;;5094260;28;20114;-71
2023/05/07 02:27:31;;;;;;;22.80;17.80;;;;;;;;;;5095856;28;20039;-70
2023/05/07 02:29:57;;;;;;;25.35;19.25;;;;;;;;;;5096712;28;20365;-70
2023/05/07 02:32:23;;;;;;;22.73;18.02;;;;;;;;;;5100318;28;20031;-70
2023/05/07 02:34:52;;;;;;;22.10;19.27;;;;;;;;;;5100086;28;20508;-70
2023/05/07 02:37:18;;;;;;;22.90;18.48;;;;;;;;;;5112946;27;20059;-70
2023/05/07 02:39:44;;;;;;;23.88;18.73;;;;;;;;;;5107928;27;20131;-71
2023/05/07 02:42:10;;;;;;;26.08;17.52;;;;;;;;;;5118683;27;20085;-71
2023/05/07 02:44:36;;;;;;;24.13;19.10;;;;;;;;;;5112591;27;20162;-70
2023/05/07 02:47:02;;;;;;;24.67;19.38;;;;;;;;;;5113068;27;20489;-71
2023/05/07 02:49:28;;;;;;;23.90;18.27;;;;;;;;;;5113832;27;20511;-70
2023/05/07 02:51:55;;;;;;;23.05;19.40;;;;;;;;;;5118768;27;20486;-69
2023/05/07 02:54:21;;;;;;;23.30;18.48;;;;;;;;;;5120802;27;20500;-70
2023/05/07 02:56:47;;;;;;;23.85;17.30;;;;;;;;;;5112249;27;20086;-70
2023/05/07 02:59:13;;;;;;;22.35;17.63;;;;;;;;;;5116411;27;20456;-70
2023/05/07 03:01:41;;;;;;;25.30;18.77;;;;;;;;;;5120312;27;20079;-70
2023/05/07 03:04:07;;;;;;;21.80;17.05;;;;;;;;;;5116357;27;20047;-70
2023/05/07 03:06:33;;;;;;;24.52;19.00;;;;;;;;;;5111738;27;20059;-70
2023/05/07 03:08:59;;;;;;;27.90;20.17;;;;;;;;;;5098136;28;20052;-70
2023/05/07 03:11:25;;;;;;;25.52;19.52;;;;;;;;;;5097271;28;20051;-70
2023/05/07 03:13:52;;;;;;;21.77;18.38;;;;;;;;;;5106654;28;20512;-70
2023/05/07 03:16:18;;;;;;;23.77;18.45;;;;;;;;;;5090832;28;20424;-70
2023/05/07 03:18:44;;;;;;;23.73;18.95;;;;;;;;;;5095704;28;20126;-71
2023/05/07 03:21:10;;;;;;;26.08;19.75;;;;;;;;;;5099065;28;20397;-71
2023/05/07 03:23:36;;;;;;;23.17;19.45;;;;;;;;;;5099274;28;20512;-70
2023/05/07 03:26:02;;;;;;;24.80;18.80;;;;;;;;;;5092333;28;20040;-70
2023/05/07 03:28:29;;;;;;;24.17;18.08;;;;;;;;;;5097902;28;20043;-70
2023/05/07 03:30:55;;;;;;;25.17;18.63;;;;;;;;;;5099761;28;20105;-70
2023/05/07 03:33:21;;;;;;;23.92;18.38;;;;;;;;;;5107279;28;20131;-70
2023/05/07 03:35:47;;;;;;;26.77;20.70;;;;;;;;;;5096726;28;20040;-70
2023/05/07 03:38:13;;;;;;;23.52;19.02;;;;;;;;;;5104045;28;20038;-70
2023/05/07 03:40:39;;;;;;;24.92;19.98;;;;;;;;;;5100325;28;20470;-70
2023/05/07 03:43:06;;;;;;;32.47;22.75;;;;;;;;;;5096439;28;20036;-70
2023/05/07 03:45:32;;;;;;;25.00;19.92;;;;;;;;;;5093334;28;20516;-70
2023/05/07 03:47:58;;;;;;;26.48;20.92;;;;;;;;;;5100240;28;20277;-70
2023/05/07 03:50:24;;;;;;;26.17;21.05;;;;;;;;;;5094421;28;20074;-70
2023/05/07 03:52:50;;;;;;;26.48;20.95;;;;;;;;;;5096439;28;20136;-70
2023/05/07 03:55:16;;;;;;;33.63;22.33;;;;;;;;;;5098967;28;20085;-70
2023/05/07 03:57:42;;;;;;;30.13;21.70;;;;;;;;;;5097827;28;20096;-71
2023/05/07 04:00:09;;;;;;;30.00;21.75;;;;;;;;;;5103686;28;20051;-71
2023/05/07 04:02:35;;;;;;;28.13;21.60;;;;;;;;;;5099187;28;20051;-70
2023/05/07 04:05:01;;;;;;;27.73;20.13;;;;;;;;;;5099612;28;20174;-70
2023/05/07 04:07:27;;;;;;;25.90;19.00;;;;;;;;;;5107216;28;20050;-72
2023/05/07 04:09:53;;;;;;;30.77;22.73;;;;;;;;;;5102286;28;20043;-71
2023/05/07 04:12:19;;;;;;;30.48;21.42;;;;;;;;;;5096250;28;20500;-71
2023/05/07 04:14:46;;;;;;;31.08;22.33;;;;;;;;;;5101112;28;20213;-72
2023/05/07 04:17:11;;;;;;;30.45;23.38;;;14.90;99.90;;;;;;5102311;28;20027;-72
2023/05/07 04:19:37;;;;;;;33.08;23.88;;;;;;;;;;5103366;28;20400;-71
2023/05/07 04:22:04;;;;;;;32.83;22.60;;;;;;;;;;5091349;28;20032;-72
2023/05/07 04:24:33;;;;;;;34.03;24.42;;;;;;;;;;5098283;28;20078;-72
2023/05/07 04:26:59;;;;;;;27.75;22.80;;;;;;;;;;5099621;28;20044;-72
2023/05/07 04:29:25;;;;;;;30.50;22.60;;;;;;;;;;5107119;28;20035;-71
2023/05/07 04:31:51;;;;;;;36.03;24.88;;;;;;;;;;5098561;28;20382;-71
2023/05/07 04:34:17;;;;;;;27.25;21.67;;;;;;;;;;5103502;28;20043;-72
2023/05/07 04:36:43;;;;;;;31.70;23.40;;;;;;;;;;5107635;28;20036;-72
2023/05/07 04:39:10;;;;;;;34.10;25.63;;;;;;;;;;5109281;28;20080;-72
2023/05/07 04:41:37;;;;;;;30.52;23.55;;;;;;;;;;5100483;28;20319;-71
2023/05/07 04:44:03;;;;;;;31.25;23.30;;;;;;;;;;5104046;28;20422;-72
2023/05/07 04:46:30;;;;;;;32.10;23.63;;;;;;;;;;5103608;28;20207;-72
2023/05/07 04:48:56;;;;;;;33.38;24.08;;;;;;;;;;5108512;28;20036;-72
2023/05/07 04:51:22;;;;;;;37.88;24.20;;;;;;;;;;5081071;28;20046;-72
2023/05/07 04:53:49;;;;;;;33.67;25.60;;;;;;;;;;5100959;28;20035;-71
2023/05/07 04:56:15;;;;;;;34.05;24.20;;;;;;;;;;5095189;28;20051;-72
2023/05/07 04:58:41;;;;;;;37.70;25.60;;;;;;;;;;5093068;28;20047;-72
2023/05/07 05:01:07;;;;;;;38.90;26.10;;;;;;;;;;5096055;28;20132;-72
2023/05/07 05:03:33;;;;;;;39.78;27.58;;;;;;;;;;5103708;28;20047;-72
2023/05/07 05:05:59;;;;;;;35.75;26.02;;;;;;;;;;5099406;28;20048;-72
2023/05/07 05:08:26;;;;;;;36.00;25.13;;;;;;;;;;5095729;28;20576;-72
2023/05/07 05:10:52;;;;;;;32.53;23.48;;;;;;;;;;5099421;28;20060;-72
2023/05/07 05:13:18;;;;;;;32.28;25.90;;;;;;;;;;5102106;28;20116;-72
2023/05/07 05:15:45;;;;;;;34.25;23.33;;;;;;;;;;5095769;28;20044;-72
2023/05/07 05:18:11;;;;;;;36.78;25.20;;;;;;;;;;5096520;28;20027;-71
2023/05/07 05:20:37;;;;;;;36.28;25.35;;;;;;;;;;5104586;28;20397;-72
2023/05/07 05:23:03;;;;;;;40.45;25.25;;;;;;;;;;5102287;28;20034;-72
2023/05/07 05:25:30;;;;;;;35.65;25.13;;;;;;;;;;5095323;28;20079;-72
2023/05/07 05:27:56;;;;;;;35.88;25.17;;;;;;;;;;5095034;28;20487;-72
2023/05/07 05:30:22;;;;;;;35.55;25.75;;;;;;;;;;5099120;28;20051;-72
2023/05/07 05:32:48;;;;;;;40.67;26.75;;;;;;;;;;5094605;28;20071;-72
2023/05/07 05:35:15;;;;;;;40.92;27.00;;;;;;;;;;5096772;28;20490;-72
2023/05/07 05:37:41;;;;;;;35.80;24.15;;;;;;;;;;5093069;28;20119;-72
2023/05/07 05:40:07;;;;;;;44.72;26.38;;;;;;;;;;5087024;28;20052;-72
2023/05/07 05:42:33;;;;;;;37.30;26.55;;;;;;;;;;5096935;28;20081;-71
2023/05/07 05:44:59;;;;;;;35.75;24.05;;;;;;;;;;5096975;28;20039;-72
2023/05/07 05:47:26;;;;;;;35.58;24.98;;;;;;;;;;5103215;28;20097;-72
2023/05/07 05:49:52;;;;;;;41.83;26.77;;;;;;;;;;5098655;28;20046;-72
2023/05/07 05:52:18;;;;;;;36.03;24.95;;;;;;;;;;5098603;28;20040;-72
2023/05/07 05:54:44;;;;;;;30.10;23.50;;;;;;;;;;5094968;28;20097;-71
2023/05/07 05:57:10;;;;;;;34.53;23.42;;;;;;;;;;5094892;28;20473;-72
2023/05/07 05:59:36;;;;;;;34.42;24.98;;;;;;;;;;5091385;28;20028;-71
2023/05/07 06:02:03;;;;;;;39.35;25.08;;;;;;;;;;5092516;28;20027;-72
2023/05/07 06:04:29;;;;;;;31.27;22.48;;;;;;;;;;5090154;28;20159;-72
2023/05/07 06:06:56;;;;;;;34.42;24.77;;;;;;;;;;5091423;28;20044;-71
2023/05/07 06:09:22;;;;;;;30.88;24.15;;;;;;;;;;5089719;28;20075;-72
2023/05/07 06:11:48;;;;;;;34.42;24.95;;;;;;;;;;5091647;28;20043;-72
2023/05/07 06:14:14;;;;;;;35.35;24.85;;;;;;;;;;5092703;28;20135;-72
2023/05/07 06:16:41;;;;;;;30.35;22.10;;;;;;;;;;5097670;28;20534;-72
2023/05/07 06:19:07;;;;;;;37.47;23.98;;;;;;;;;;5093870;28;20036;-72
2023/05/07 06:21:34;;;;;;;30.45;23.52;;;;;;;;;;5096153;28;20121;-72
2023/05/07 06:24:00;;;;;;;28.35;20.50;;;;;;;;;;5096213;28;20046;-71
2023/05/07 06:26:26;;;;;;;36.95;22.42;;;;;;;;;;5096279;28;21031;-72
2023/05/07 06:28:52;;;;;;;28.65;20.35;;;;;;;;;;5087820;28;20143;-72
2023/05/07 06:31:22;;;;;;;32.05;22.52;;;;;;;;;;5091867;28;20458;-72
2023/05/07 06:33:49;;;;;;;29.55;23.05;;;;;;;;;;5090683;28;20101;-72
2023/05/07 06:36:16;;;;;;;27.92;22.20;;;;;;;;;;5096802;28;20035;-71
2023/05/07 06:38:42;;;;;;;33.47;22.73;;;;;;;;;;5091392;28;20028;-72
2023/05/07 06:41:08;;;;;;;28.10;22.15;;;;;;;;;;5091838;28;20042;-72
2023/05/07 06:43:34;;;;;;;24.77;19.52;;;;;;;;;;5096440;28;20462;-72
2023/05/07 06:46:00;;;;;;;33.15;21.88;;;;;;;;;;5094602;28;20412;-72
2023/05/07 06:48:26;;;;;;;27.00;21.33;;;;;;;;;;5092682;28;20502;-71
2023/05/07 06:50:55;;;;;;;31.42;21.70;;;;;;;;;;5092782;28;20077;-71
2023/05/07 06:53:21;;;;;;;29.33;22.55;;;;;;;;;;5093696;28;20480;-72
2023/05/07 06:55:47;;;;;;;28.13;19.83;;;;;;;;;;5087611;28;20078;-72
2023/05/07 06:58:13;;;;;;;32.88;22.45;;;;;;;;;;5085521;28;20127;-70
2023/05/07 07:00:40;;;;;;;29.10;21.77;;;;;;;;;;5091687;28;20093;-73
2023/05/07 07:03:07;;;;;;;29.15;21.52;;;;;;;;;;5089005;28;20059;-71
2023/05/07 07:05:33;;;;;;;26.15;19.65;;;;;;;;;;5088429;28;20313;-72
2023/05/07 07:07:59;;;;;;;24.27;18.70;;;;;;;;;;5079713;28;20322;-72
2023/05/07 07:10:25;;;;;;;29.75;22.42;;;;;;;;;;5084942;28;20096;-72
2023/05/07 07:12:52;;;;;;;29.05;20.42;;;;;;;;;;5092808;28;20120;-72
2023/05/07 07:15:20;;;;;;;38.25;25.70;;;;;;;;;;5093998;28;20078;-72
2023/05/07 07:17:46;;;;;;;30.77;23.83;;;;;;;;;;5088448;28;20520;-72
2023/05/07 07:20:12;;;;;;;25.25;20.77;;;;;;;;;;5094394;28;20062;-72
2023/05/07 07:22:38;;;;;;;26.45;20.20;;;;;;;;;;5101357;28;20036;-72
2023/05/07 07:25:05;;;;;;;32.40;23.25;;;;;;;;;;5085626;28;20130;-72
2023/05/07 07:27:31;;;;;;;24.75;18.83;;;;;;;;;;5090585;28;20078;-72
2023/05/07 07:29:57;;;;;;;24.00;20.60;;;;;;;;;;5091985;28;20429;-72
2023/05/07 07:32:23;;;;;;;28.33;20.80;;;;;;;;;;5091752;28;20044;-72
2023/05/07 07:34:49;;;;;;;26.63;20.80;;;;;;;;;;5093425;28;20451;-72
2023/05/07 07:37:16;;;;;;;27.63;20.60;;;;;;;;;;5094419;28;20040;-72
2023/05/07 07:39:42;;;;;;;27.48;18.88;;;;;;;;;;5074923;28;20040;-72
2023/05/07 07:42:08;;;;;;;29.25;21.02;;;;;;;;;;5089900;28;20064;-72
2023/05/07 07:44:34;;;;;;;26.58;19.27;;;;;;;;;;5095949;28;20481;-72
2023/05/07 07:47:00;;;;;;;28.25;19.85;;;;;;;;;;5099130;28;20036;-72
2023/05/07 07:49:27;;;;;;;24.85;19.35;;;;;;;;;;5079350;28;20097;-72
2023/05/07 07:51:53;;;;;;;29.10;21.17;;;;;;;;;;5100595;28;20092;-72
2023/05/07 07:54:19;;;;;;;28.15;19.13;;;;;;;;;;5084152;28;20126;-72
2023/05/07 07:56:45;;;;;;;26.30;19.58;;;;;;;;;;5092098;28;20155;-72
2023/05/07 07:59:13;;;;;;;31.52;19.73;;;;;;;;;;5094790;28;20259;-72
2023/05/07 08:01:39;;;;;;;30.17;19.75;;;;;;;;;;5092161;28;20100;-72
2023/05/07 08:04:06;;;;;;;25.50;20.33;;;;;;;;;;5089039;28;20052;-72
2023/05/07 08:06:32;;;;;;;23.58;18.30;;;;;;;;;;5090088;28;20052;-72
2023/05/07 08:08:58;;;;;;;30.95;22.15;;;;;;;;;;5092368;28;20047;-72
2023/05/07 08:11:25;;;;;;;24.30;19.33;;;;;;;;;;5090429;28;20513;-72
2023/05/07 08:13:51;;;;;;;28.90;21.33;;;;;;;;;;5094133;27;20054;-72
2023/05/07 08:16:17;;;;;;;27.63;19.25;;;;;;;;;;5096920;28;20044;-72
2023/05/07 08:18:43;;;;;;;29.75;20.73;;;;;;;;;;5092535;28;20040;-72
2023/05/07 08:21:09;;;;;;;26.60;20.05;;;;;;;;;;5091270;28;20627;-72
2023/05/07 08:23:36;;;;;;;25.15;20.17;;;;;;;;;;5102376;28;20644;-72
2023/05/07 08:26:02;;;;;;;26.92;20.15;;;;;;;;;;5097975;28;20051;-72
2023/05/07 08:28:28;;;;;;;25.25;18.55;;;;;;;;;;5091782;28;20125;-72
2023/05/07 08:30:56;;;;;;;30.25;20.70;;;;;;;;;;5093216;28;20036;-72
2023/05/07 08:33:22;;;;;;;25.60;19.63;;;;;;;;;;5076640;28;20047;-72
2023/05/07 08:35:48;;;;;;;28.05;20.58;;;;;;;;;;5097861;28;20048;-72
2023/05/07 08:38:14;;;;;;;23.17;18.52;;;;;;;;;;5098731;28;20040;-71
2023/05/07 08:40:41;;;;;;;29.02;21.48;;;;;;;;;;5097081;28;20606;-72
2023/05/07 08:43:07;;;;;;;21.98;18.63;;;;;;;;;;5095131;28;20048;-72
2023/05/07 08:45:34;;;;;;;26.17;20.10;;;;;;;;;;5097076;28;20035;-72
2023/05/07 08:48:00;;;;;;;24.80;18.60;;;;;;;;;;5089614;28;20547;-72
2023/05/07 08:50:27;;;;;;;23.63;19.83;;;;;;;;;;5094378;28;20101;-72
2023/05/07 08:52:53;;;;;;;24.48;19.55;;;;;;;;;;5110129;27;20043;-73
2023/05/07 08:55:19;;;;;;;29.58;19.83;;;;;;;;;;5106398;27;20035;-72
2023/05/07 08:57:46;;;;;;;25.65;19.73;;;;;;;;;;5098526;27;20039;-72
2023/05/07 09:00:13;;;;;;;24.55;18.90;;;;;;;;;;5106294;27;20043;-72
2023/05/07 09:02:39;;;;;;;27.35;20.38;;;;;;;;;;5104869;27;20046;-72
2023/05/07 09:05:06;;;;;;;26.63;20.77;;;;;;;;;;5100083;27;20056;-72
2023/05/07 09:07:32;;;;;;;27.35;21.02;;;;;;;;;;5101477;27;20097;-72
2023/05/07 09:09:59;;;;;;;27.63;20.13;;;;;;;;;;5096201;27;20044;-73
2023/05/07 09:12:25;;;;;;;29.05;22.08;;;;;;;;;;5106974;27;20047;-60
2023/05/07 09:14:51;;;;;;;26.48;20.15;;;;;;;;;;5079520;28;20476;-60
2023/05/07 09:17:17;;;;;;;24.83;20.10;;;;;;;;;;5096930;28;20039;-60
2023/05/07 09:19:45;;;;;;;24.70;18.50;;;;;;;;;;5102812;27;20032;-60
2023/05/07 09:22:12;;;;;;;29.40;20.42;;;;;;;;;;5101623;27;20101;-61
2023/05/07 09:24:38;;;;;;;27.42;18.83;;;;;;;;;;5097526;27;20040;-60
2023/05/07 09:27:05;;;;;;;27.02;19.60;;;;;;;;;;5103816;28;20118;-60
2023/05/07 09:29:37;;;;;;;29.40;21.02;;;;;;;;;;5099127;27;20089;-61
2023/05/07 09:32:04;;;;;;;29.15;20.15;;;;;;;;;;5112078;27;20061;-60
2023/05/07 09:34:30;;;;;;;26.58;20.80;;;;;;;;;;5089971;27;20044;-60
2023/05/07 09:36:57;;;;;;;28.10;19.73;;;;;;;;;;5100680;27;20048;-60
2023/05/07 09:39:24;;;;;;;25.95;20.48;;;;;;;;;;5097934;27;20485;-61
2023/05/07 09:41:52;;;;;;;27.67;20.50;;;;;;;;;;5099642;27;20032;-60
2023/05/07 09:44:19;;;;;;;26.20;20.50;;;;;;;;;;5092580;27;20043;-61
2023/05/07 09:46:47;;;;;;;28.40;20.20;;;;;;;;;;5102873;27;20445;-61
2023/05/07 09:49:22;;;;;;;25.85;20.52;;;;;;;;;;5100043;27;20324;-60
2023/05/07 09:51:52;;;;;;;30.75;22.60;;;;;;;;;;5105873;27;20096;-60
2023/05/07 09:54:18;;;;;;;30.63;22.17;;;12.50;99.90;;;;;;5083370;28;20466;-60
2023/05/07 09:56:45;;;;;;;27.33;22.27;;;;;;;;;;5102617;27;20086;-61
2023/05/07 09:59:15;;;;;;;27.88;19.92;;;;;;;;;;5091055;28;20071;-60
2023/05/07 10:01:42;;;;;;;27.65;21.15;;;;;;;;;;5090303;27;20237;-61
2023/05/07 10:04:08;;;;;;;24.35;20.85;;;;;;;;;;5099391;28;20048;-60
2023/05/07 10:06:35;;;;;;;28.60;21.15;;;;;;;;;;5104613;27;20399;-60
2023/05/07 10:09:02;;;;;;;28.60;21.90;;;;;;;;;;5095898;27;20040;-59
2023/05/07 10:11:29;;;;;;;26.30;21.58;;;;;;;;;;5090092;27;20173;-59
2023/05/07 10:13:55;;;;;;;28.52;21.00;;;;;;;;;;5099934;27;20031;-60
2023/05/07 10:16:22;;;;;;;29.80;21.75;;;;;;;;;;5093010;27;20050;-60
2023/05/07 10:18:48;;;;;;;27.92;22.40;;;;;;;;;;5091238;27;20052;-60
2023/05/07 10:21:18;;;;;;;25.17;20.65;;;;;;;;;;5094233;27;20035;-60
2023/05/07 10:23:52;;;;;;;28.23;21.05;;;;;;;;;;5106474;27;20053;-60
2023/05/07 10:26:20;;;;;;;33.22;21.73;;;14.50;99.90;;;;;;5096929;27;20058;-60
2023/05/07 10:28:50;;;;;;;26.90;19.35;;;15.00;99.90;;;;;;5097496;27;20188;-60
2023/05/07 10:31:44;;;;;;;28.40;20.60;;;15.10;99.90;;;;;;5085562;28;20505;-60
2023/05/07 10:34:16;;;;;;;25.17;21.13;;;15.10;99.90;;;;;;5095323;27;20040;-60
2023/05/07 10:36:42;;;;;;;26.30;21.08;;;15.20;99.90;;;;;;5097318;27;20048;-60
2023/05/07 10:39:08;;;;;;;27.30;20.15;;;15.30;99.90;;;;;;5098088;27;20046;-60
2023/05/07 10:41:34;;;;;;;29.17;20.40;;;15.40;99.90;;;;;;5096172;28;20571;-60
2023/05/07 10:44:01;;;;;;;26.60;19.67;;;15.50;99.90;;;;;;5092827;27;20146;-60
2023/05/07 10:46:28;;;;;;;27.67;20.90;;;;;;;;;;5096119;27;20048;-60
2023/05/07 10:49:05;;;;;;;28.05;20.35;;;;;;;;;;5097174;27;20096;-60
2023/05/07 10:51:32;;;;;;;25.02;20.00;;;;;;;;;;5096391;28;20176;-60
2023/05/07 10:54:14;;;;;;;26.73;19.60;;;;;;;;;;5099783;27;20574;-60
2023/05/07 10:56:43;;;;;;;25.30;19.20;;;;;;;;;;5100246;27;20099;-60
2023/05/07 10:59:30;;;;;;;25.40;20.92;;;;;;;;;;5090210;28;20589;-60
2023/05/07 11:02:03;;;;;;;31.17;19.80;;;;;;;;;;5092863;28;20055;-60
2023/05/07 11:04:34;;;;;;;23.52;18.95;;;;;;;;;;5097940;27;20428;-60
2023/05/07 11:07:06;;;;;;;27.02;20.38;;;;;;;;;;5092768;28;20048;-60
2023/05/07 11:09:51;;;;;;;27.77;20.50;;;;;;;;;;5099106;28;20040;-60
2023/05/07 11:12:17;;;;;;;21.90;18.77;;;;;;;;;;5102954;28;20048;-60
2023/05/07 11:14:45;;;;;;;25.83;20.00;;;;;;;;;;5092937;28;20051;-60
2023/05/07 11:17:12;;;;;;;26.75;20.25;;;;;;;;;;5097220;28;20123;-60
2023/05/07 11:19:56;;;;;;;26.33;19.88;;;;;;;;;;5097180;28;20468;-60
2023/05/07 11:22:41;;;;;;;26.48;20.15;;;;;;;;;;5099336;28;20615;-60
2023/05/07 11:25:07;;;;;;;26.30;20.25;;;;;;;;;;5094640;28;20390;-60
2023/05/07 11:27:33;;;;;;;27.08;18.92;;;;;;;;;;5098262;28;20151;-60
2023/05/07 11:30:00;;;;;;;25.52;19.30;;;;;;;;;;5098081;28;20040;-60
2023/05/07 11:32:30;;;;;;;22.58;17.83;;;;;;;;;;5090454;28;20044;-60
2023/05/07 11:34:57;;;;;;;25.35;20.27;;;;;;;;;;5103827;28;20051;-60
2023/05/07 11:37:24;;;;;;;24.85;19.05;;;;;;;;;;5109933;27;20562;-60
2023/05/07 11:39:58;;;;;;;21.42;17.85;;;;;;;;;;5104858;27;20441;-60
2023/05/07 11:42:33;;;;;;;24.15;18.38;;;;;;;;;;5107076;27;20084;-60
2023/05/07 11:45:00;;;;;;;25.08;17.83;;;;;;;;;;5106814;27;20513;-60
2023/05/07 11:47:26;;;;;;;24.90;17.90;;;;;;;;;;5112124;27;20513;-60
2023/05/07 11:49:53;;;;;;;23.90;18.42;;;;;;;;;;5110612;27;20520;-60
2023/05/07 11:52:20;;;;;;;21.10;16.77;;;;;;;;;;5109519;28;20039;-60
2023/05/07 11:54:56;;;;;;;23.05;18.15;;;;;;;;;;5102606;27;20088;-60
2023/05/07 11:57:23;;;;;;;25.30;17.67;;;;;;;;;;5104408;27;20036;-60
2023/05/07 11:59:53;;;;;;;21.75;17.92;;;;;;;;;;5105871;27;20088;-60
2023/05/07 12:02:19;;;;;;;23.30;17.40;;;;;;;;;;5099226;27;20047;-60
2023/05/07 12:04:45;;;;;;;20.85;17.92;;;;;;;;;;5101492;27;20620;-59
2023/05/07 12:07:13;;;;;;;22.90;18.48;;;;;;;;;;5109228;27;20458;-60
2023/05/07 12:09:39;;;;;;;23.10;16.40;;;;;;;;;;5108208;27;20088;-60
2023/05/07 12:12:06;;;;;;;22.13;17.50;;;;;;;;;;5100756;27;20528;-60
2023/05/07 12:14:32;;;;;;;20.60;16.58;;;;;;;;;;5107069;27;20405;-60
2023/05/07 12:17:01;;;;;;;19.20;16.13;;;;;;;;;;5101141;27;20040;-60
2023/05/07 12:19:28;;;;;;;20.70;16.20;;;;;;;;;;5103407;27;20055;-59
2023/05/07 12:21:56;;;;;;;21.90;16.27;;;;;;;;;;5096503;27;20093;-60
2023/05/07 12:24:22;;;;;;;19.33;15.70;;;;;;;;;;5104632;27;20432;-60
2023/05/07 12:26:49;;;;;;;20.50;16.35;;;;;;;;;;5106471;27;20048;-60
2023/05/07 12:29:15;;;;;;;19.00;16.75;;;15.50;99.90;;;;;;5089538;27;20541;-60
2023/05/07 12:31:43;;;;;;;21.58;15.82;;;17.80;99.90;;;;;;5100395;28;20040;-60
2023/05/07 12:34:11;;;;;;;25.08;17.55;;;17.90;99.90;;;;;;5104680;27;20031;-60
2023/05/07 12:36:38;;;;;;;18.75;15.27;;;17.90;99.90;;;;;;5104393;27;20063;-59
2023/05/07 12:39:10;;;;;;;18.25;16.10;;;17.90;99.90;;;;;;5097990;27;20051;-60
2023/05/07 12:41:53;;;;;;;18.85;16.05;;;17.90;99.90;;;;;;5101094;28;20046;-59
2023/05/07 12:44:19;;;;;;;20.13;17.67;;;18.00;99.90;;;;;;5088492;28;20068;-59
2023/05/07 12:46:46;;;;;;;22.20;16.92;;;18.00;99.90;;;;;;5078383;27;20085;-59
2023/05/07 12:49:12;;;;;;;20.92;16.40;;;18.10;99.90;;;;;;5106784;27;20148;-59
2023/05/07 12:51:38;;;;;;;17.38;15.32;;;18.10;99.90;;;;;;5093484;28;20064;-59
2023/05/07 12:54:04;;;;;;;17.88;14.98;;;18.10;99.90;;;;;;5102249;27;20150;-59
2023/05/07 12:56:36;;;;;;;18.20;14.10;;;18.10;99.90;;;;;;5116082;27;20574;-59
2023/05/07 12:59:01;;;;;;;19.15;15.25;;;18.10;99.90;;;;;;5097219;27;20032;-60
2023/05/07 13:01:31;;;;;;;18.48;16.13;;;18.20;99.90;;;;;;5110841;27;20094;-60
2023/05/07 13:04:02;;;;;;;20.42;15.57;;;18.20;99.90;;;;;;5088432;28;20131;-60
2023/05/07 13:06:30;;;;;;;19.38;16.00;;;18.20;99.90;;;;;;5117106;27;20070;-59
2023/05/07 13:08:56;;;;;;;21.17;14.95;;;18.20;99.90;;;;;;5076208;28;20101;-59
2023/05/07 13:11:22;;;;;;;18.42;15.35;;;18.20;99.90;;;;;;5095367;27;20197;-59
2023/05/07 13:13:48;;;;;;;20.00;16.13;;;18.30;99.90;;;;;;5111367;27;20377;-59
2023/05/07 13:16:14;;;;;;;18.58;16.00;;;18.30;99.90;;;;;;5110294;27;20046;-59
2023/05/07 13:18:40;;;;;;;18.95;15.55;;;18.40;99.90;;;;;;5098208;27;20059;-59
2023/05/07 13:21:06;;;;;;;18.38;15.90;;;18.40;99.90;;;;;;5114392;27;20092;-59
2023/05/07 13:23:32;;;;;;;19.08;14.98;;;18.50;99.90;;;;;;5101784;27;20504;-60
2023/05/07 13:25:58;;;;;;;17.02;14.50;;;18.50;99.90;;;;;;5097090;27;20114;-59
2023/05/07 13:28:24;;;;;;;18.35;15.32;;;18.60;99.90;;;;;;5074339;28;20046;-59
2023/05/07 13:30:52;;;;;;;16.88;15.00;;;18.60;99.90;;;;;;5110675;27;20032;-60
2023/05/07 13:33:18;;;;;;;17.67;14.07;;;18.70;99.90;;;;;;5113224;27;20049;-59
2023/05/07 13:35:44;;;;;;;16.58;13.95;;;18.70;99.90;;;;;;5113494;27;20469;-59
2023/05/07 13:38:10;;;;;;;18.42;15.15;;;18.80;99.90;;;;;;5103061;27;20035;-59
2023/05/07 13:40:36;;;;;;;17.92;15.65;;;18.80;99.90;;;;;;5107708;27;20061;-59
2023/05/07 13:43:02;;;;;;;15.98;14.13;;;18.90;99.90;;;;;;5107434;27;20032;-59
2023/05/07 13:45:29;;;;;;;15.80;13.82;;;18.90;99.90;;;;;;5097185;27;20046;-59
2023/05/07 13:47:55;;;;;;;17.45;15.20;;;18.90;99.90;;;;;;5105170;27;20098;-60
2023/05/07 13:50:21;;;;;;;17.95;14.70;;;19.00;99.90;;;;;;5106505;27;20051;-60
2023/05/07 13:52:50;;;;;;;16.92;14.98;;;19.00;99.90;;;;;;5099919;28;20054;-59
2023/05/07 13:55:19;;;;;;;17.98;13.77;;;;;;;;;;5096560;27;20101;-60
2023/05/07 13:57:45;;;;;;;16.02;14.32;;;;;;;;;;5103682;27;20110;-59
2023/05/07 14:00:12;;;;;;;15.35;13.10;;;;;;;;;;5108837;27;20452;-60